sensor_id;sensor_type;location;lat;lon;timestamp;temperature;humidity
38788;DHT22;24536;45.488;12.238;2024-03-02T00:00:07;13.50;99.90
38788;DHT22;24536;45.488;12.238;2024-03-02T00:02:45;13.50;99.90
38788;DHT22;24536;45.488;12.238;2024-03-02T00:05:12;13.50;99.90
38788;DHT22;24536;45.488;12.238;2024-03-02T00:07:40;13.50;99.90
38788;DHT22;24536;45.488;12.238;2024-03-02T00:10:09;13.50;99.90
38788;DHT22;24536;45.488;12.238;2024-03-02T00:12:41;13.40;99.90
38788;DHT22;24536;45.488;12.238;2024-03-02T00:15:33;13.40;99.90
38788;DHT22;24536;45.488;12.238;2024-03-02T00:18:02;13.40;99.90
38788;DHT22;24536;45.488;12.238;2024-03-02T00:20:29;13.40;99.90
38788;DHT22;24536;45.488;12.238;2024-03-02T00:23:05;13.40;99.90
38788;DHT22;24536;45.488;12.238;2024-03-02T00:25:39;13.40;99.90
38788;DHT22;24536;45.488;12.238;2024-03-02T00:28:20;13.40;99.90
38788;DHT22;24536;45.488;12.238;2024-03-02T00:33:21;13.40;99.90
38788;DHT22;24536;45.488;12.238;2024-03-02T00:35:47;13.40;99.90
38788;DHT22;24536;45.488;12.238;2024-03-02T00:38:14;13.40;99.90
38788;DHT22;24536;45.488;12.238;2024-03-02T00:40:43;13.40;99.90
38788;DHT22;24536;45.488;12.238;2024-03-02T00:45:53;13.40;99.90
38788;DHT22;24536;45.488;12.238;2024-03-02T00:48:19;13.30;99.90
38788;DHT22;24536;45.488;12.238;2024-03-02T00:50:45;13.30;99.90
38788;DHT22;24536;45.488;12.238;2024-03-02T00:53:12;13.30;99.90
38788;DHT22;24536;45.488;12.238;2024-03-02T00:55:38;13.30;99.90
38788;DHT22;24536;45.488;12.238;2024-03-02T00:58:22;13.30;99.90
38788;DHT22;24536;45.488;12.238;2024-03-02T01:00:50;13.30;99.90
38788;DHT22;24536;45.488;12.238;2024-03-02T01:03:15;13.20;99.90
38788;DHT22;24536;45.488;12.238;2024-03-02T01:05:44;13.20;99.90
38788;DHT22;24536;45.488;12.238;2024-03-02T01:08:10;13.30;99.90
38788;DHT22;24536;45.488;12.238;2024-03-02T01:10:36;13.20;99.90
38788;DHT22;24536;45.488;12.238;2024-03-02T01:13:02;13.30;99.90
38788;DHT22;24536;45.488;12.238;2024-03-02T01:15:27;13.20;99.90
38788;DHT22;24536;45.488;12.238;2024-03-02T01:17:53;13.20;99.90
38788;DHT22;24536;45.488;12.238;2024-03-02T01:20:19;13.20;99.90
38788;DHT22;24536;45.488;12.238;2024-03-02T01:22:44;13.20;99.90
38788;DHT22;24536;45.488;12.238;2024-03-02T01:25:10;13.20;99.90
38788;DHT22;24536;45.488;12.238;2024-03-02T01:27:36;13.10;99.90
38788;DHT22;24536;45.488;12.238;2024-03-02T01:30:01;13.10;99.90
38788;DHT22;24536;45.488;12.238;2024-03-02T01:32:27;13.00;99.90
38788;DHT22;24536;45.488;12.238;2024-03-02T01:34:52;13.00;99.90
38788;DHT22;24536;45.488;12.238;2024-03-02T01:37:19;13.00;99.90
38788;DHT22;24536;45.488;12.238;2024-03-02T01:39:44;13.00;99.90
38788;DHT22;24536;45.488;12.238;2024-03-02T01:42:10;13.00;99.90
38788;DHT22;24536;45.488;12.238;2024-03-02T01:44:40;13.00;99.90
38788;DHT22;24536;45.488;12.238;2024-03-02T01:47:05;13.00;99.90
38788;DHT22;24536;45.488;12.238;2024-03-02T01:49:32;13.00;99.90
38788;DHT22;24536;45.488;12.238;2024-03-02T01:51:59;13.00;99.90
38788;DHT22;24536;45.488;12.238;2024-03-02T01:54:25;13.00;99.90
38788;DHT22;24536;45.488;12.238;2024-03-02T01:56:51;13.00;99.90
38788;DHT22;24536;45.488;12.238;2024-03-02T01:59:16;13.00;99.90
38788;DHT22;24536;45.488;12.238;2024-03-02T02:01:42;13.00;99.90
38788;DHT22;24536;45.488;12.238;2024-03-02T02:04:08;13.00;99.90
38788;DHT22;24536;45.488;12.238;2024-03-02T02:06:33;13.00;99.90
38788;DHT22;24536;45.488;12.238;2024-03-02T02:08:59;12.90;99.90
38788;DHT22;24536;45.488;12.238;2024-03-02T02:11:25;12.90;99.90
38788;DHT22;24536;45.488;12.238;2024-03-02T02:13:50;12.80;99.90
38788;DHT22;24536;45.488;12.238;2024-03-02T02:16:16;12.80;99.90
38788;DHT22;24536;45.488;12.238;2024-03-02T02:18:42;12.90;99.90
38788;DHT22;24536;45.488;12.238;2024-03-02T02:21:07;12.90;99.90
38788;DHT22;24536;45.488;12.238;2024-03-02T02:23:33;12.90;99.90
38788;DHT22;24536;45.488;12.238;2024-03-02T02:25:59;12.90;99.90
38788;DHT22;24536;45.488;12.238;2024-03-02T02:28:25;12.90;99.90
38788;DHT22;24536;45.488;12.238;2024-03-02T02:30:50;12.90;99.90
38788;DHT22;24536;45.488;12.238;2024-03-02T02:33:16;12.80;99.90
38788;DHT22;24536;45.488;12.238;2024-03-02T02:35:42;12.80;99.90
38788;DHT22;24536;45.488;12.238;2024-03-02T02:38:07;12.80;99.90
38788;DHT22;24536;45.488;12.238;2024-03-02T02:40:33;12.80;99.90
38788;DHT22;24536;45.488;12.238;2024-03-02T02:42:59;12.80;99.90
38788;DHT22;24536;45.488;12.238;2024-03-02T02:45:25;12.80;99.90
38788;DHT22;24536;45.488;12.238;2024-03-02T02:47:50;12.80;99.90
38788;DHT22;24536;45.488;12.238;2024-03-02T02:50:16;12.80;99.90
38788;DHT22;24536;45.488;12.238;2024-03-02T02:52:42;12.80;99.80
38788;DHT22;24536;45.488;12.238;2024-03-02T02:55:11;12.80;99.80
38788;DHT22;24536;45.488;12.238;2024-03-02T02:57:38;12.80;99.80
38788;DHT22;24536;45.488;12.238;2024-03-02T03:00:08;12.80;99.90
38788;DHT22;24536;45.488;12.238;2024-03-02T03:02:43;12.80;99.90
38788;DHT22;24536;45.488;12.238;2024-03-02T03:05:10;12.80;99.80
38788;DHT22;24536;45.488;12.238;2024-03-02T03:07:37;12.70;99.90
38788;DHT22;24536;45.488;12.238;2024-03-02T03:10:04;12.70;99.90
38788;DHT22;24536;45.488;12.238;2024-03-02T03:12:30;12.70;99.90
38788;DHT22;24536;45.488;12.238;2024-03-02T03:14:56;12.60;99.90
38788;DHT22;24536;45.488;12.238;2024-03-02T03:17:22;12.60;99.90
38788;DHT22;24536;45.488;12.238;2024-03-02T03:19:49;12.60;99.90
38788;DHT22;24536;45.488;12.238;2024-03-02T03:22:14;12.70;99.90
38788;DHT22;24536;45.488;12.238;2024-03-02T03:24:40;12.70;99.90
38788;DHT22;24536;45.488;12.238;2024-03-02T03:27:06;12.70;99.90
38788;DHT22;24536;45.488;12.238;2024-03-02T03:29:32;12.70;99.90
38788;DHT22;24536;45.488;12.238;2024-03-02T03:31:57;12.70;99.90
38788;DHT22;24536;45.488;12.238;2024-03-02T03:34:23;12.70;99.90
38788;DHT22;24536;45.488;12.238;2024-03-02T03:36:49;12.70;99.90
38788;DHT22;24536;45.488;12.238;2024-03-02T03:39:14;12.70;99.90
38788;DHT22;24536;45.488;12.238;2024-03-02T03:41:43;12.70;99.90
38788;DHT22;24536;45.488;12.238;2024-03-02T03:44:08;12.60;99.90
38788;DHT22;24536;45.488;12.238;2024-03-02T03:46:35;12.60;99.90
38788;DHT22;24536;45.488;12.238;2024-03-02T03:49:00;12.60;99.90
38788;DHT22;24536;45.488;12.238;2024-03-02T03:51:26;12.70;99.90
38788;DHT22;24536;45.488;12.238;2024-03-02T03:53:51;12.70;99.90
38788;DHT22;24536;45.488;12.238;2024-03-02T03:56:17;12.70;99.90
38788;DHT22;24536;45.488;12.238;2024-03-02T03:58:43;12.70;99.90
38788;DHT22;24536;45.488;12.238;2024-03-02T04:01:08;12.70;99.90
38788;DHT22;24536;45.488;12.238;2024-03-02T04:03:34;12.70;99.90
38788;DHT22;24536;45.488;12.238;2024-03-02T04:06:00;12.70;99.90
38788;DHT22;24536;45.488;12.238;2024-03-02T04:08:26;12.70;99.90
38788;DHT22;24536;45.488;12.238;2024-03-02T04:10:51;12.80;99.90
38788;DHT22;24536;45.488;12.238;2024-03-02T04:13:17;12.80;99.90
38788;DHT22;24536;45.488;12.238;2024-03-02T04:15:43;12.80;99.90
38788;DHT22;24536;45.488;12.238;2024-03-02T04:18:08;12.80;99.90
38788;DHT22;24536;45.488;12.238;2024-03-02T04:20:34;12.80;99.90
38788;DHT22;24536;45.488;12.238;2024-03-02T04:23:01;12.80;99.90
38788;DHT22;24536;45.488;12.238;2024-03-02T04:25:26;12.80;99.90
38788;DHT22;24536;45.488;12.238;2024-03-02T04:27:52;12.80;99.90
38788;DHT22;24536;45.488;12.238;2024-03-02T04:30:18;12.80;99.90
38788;DHT22;24536;45.488;12.238;2024-03-02T04:32:43;12.80;99.90
38788;DHT22;24536;45.488;12.238;2024-03-02T04:35:12;12.80;99.90
38788;DHT22;24536;45.488;12.238;2024-03-02T04:37:38;12.70;99.90
38788;DHT22;24536;45.488;12.238;2024-03-02T04:40:04;12.70;99.90
38788;DHT22;24536;45.488;12.238;2024-03-02T04:42:33;12.70;99.90
38788;DHT22;24536;45.488;12.238;2024-03-02T04:44:59;12.70;99.90
38788;DHT22;24536;45.488;12.238;2024-03-02T04:47:25;12.70;99.90
38788;DHT22;24536;45.488;12.238;2024-03-02T04:49:50;12.70;99.90
38788;DHT22;24536;45.488;12.238;2024-03-02T04:52:16;12.70;99.90
38788;DHT22;24536;45.488;12.238;2024-03-02T04:54:42;12.80;99.90
38788;DHT22;24536;45.488;12.238;2024-03-02T04:57:26;12.80;99.90
38788;DHT22;24536;45.488;12.238;2024-03-02T04:59:52;12.70;99.90
38788;DHT22;24536;45.488;12.238;2024-03-02T05:02:18;12.70;99.90
38788;DHT22;24536;45.488;12.238;2024-03-02T05:04:43;12.80;99.90
38788;DHT22;24536;45.488;12.238;2024-03-02T05:07:09;12.70;99.90
38788;DHT22;24536;45.488;12.238;2024-03-02T05:09:35;12.70;99.90
38788;DHT22;24536;45.488;12.238;2024-03-02T05:12:01;12.70;99.90
38788;DHT22;24536;45.488;12.238;2024-03-02T05:14:46;12.60;99.90
38788;DHT22;24536;45.488;12.238;2024-03-02T05:17:11;12.70;99.90
38788;DHT22;24536;45.488;12.238;2024-03-02T05:19:37;12.70;99.90
38788;DHT22;24536;45.488;12.238;2024-03-02T05:22:03;12.70;99.90
38788;DHT22;24536;45.488;12.238;2024-03-02T05:24:29;12.70;99.90
38788;DHT22;24536;45.488;12.238;2024-03-02T05:26:55;12.70;99.90
38788;DHT22;24536;45.488;12.238;2024-03-02T05:29:21;12.70;99.90
38788;DHT22;24536;45.488;12.238;2024-03-02T05:31:47;12.70;99.90
38788;DHT22;24536;45.488;12.238;2024-03-02T05:34:12;12.70;99.90
38788;DHT22;24536;45.488;12.238;2024-03-02T05:36:38;12.70;99.90
38788;DHT22;24536;45.488;12.238;2024-03-02T05:39:05;12.70;99.90
38788;DHT22;24536;45.488;12.238;2024-03-02T05:41:31;12.70;99.90
38788;DHT22;24536;45.488;12.238;2024-03-02T05:44:06;12.70;99.90
38788;DHT22;24536;45.488;12.238;2024-03-02T05:46:32;12.70;99.90
38788;DHT22;24536;45.488;12.238;2024-03-02T05:48:59;12.70;99.90
38788;DHT22;24536;45.488;12.238;2024-03-02T05:51:25;12.70;99.90
38788;DHT22;24536;45.488;12.238;2024-03-02T05:53:51;12.70;99.90
38788;DHT22;24536;45.488;12.238;2024-03-02T05:56:16;12.70;99.90
38788;DHT22;24536;45.488;12.238;2024-03-02T05:58:42;12.70;99.90
38788;DHT22;24536;45.488;12.238;2024-03-02T06:01:26;12.70;99.90
38788;DHT22;24536;45.488;12.238;2024-03-02T06:03:55;12.70;99.90
38788;DHT22;24536;45.488;12.238;2024-03-02T06:06:22;12.80;99.90
38788;DHT22;24536;45.488;12.238;2024-03-02T06:08:47;12.80;99.90
38788;DHT22;24536;45.488;12.238;2024-03-02T06:11:13;12.80;99.90
38788;DHT22;24536;45.488;12.238;2024-03-02T06:13:39;12.80;99.90
38788;DHT22;24536;45.488;12.238;2024-03-02T06:16:05;12.80;99.90
38788;DHT22;24536;45.488;12.238;2024-03-02T06:18:30;12.80;99.90
38788;DHT22;24536;45.488;12.238;2024-03-02T06:20:56;12.80;99.90
38788;DHT22;24536;45.488;12.238;2024-03-02T06:23:22;12.80;99.90
38788;DHT22;24536;45.488;12.238;2024-03-02T06:25:47;12.80;99.90
38788;DHT22;24536;45.488;12.238;2024-03-02T06:28:13;12.80;99.90
38788;DHT22;24536;45.488;12.238;2024-03-02T06:30:41;12.80;99.90
38788;DHT22;24536;45.488;12.238;2024-03-02T06:33:08;12.80;99.90
38788;DHT22;24536;45.488;12.238;2024-03-02T06:35:33;12.80;99.90
38788;DHT22;24536;45.488;12.238;2024-03-02T06:38:00;12.80;99.90
38788;DHT22;24536;45.488;12.238;2024-03-02T06:40:26;12.90;99.90
38788;DHT22;24536;45.488;12.238;2024-03-02T06:42:52;12.90;99.90
38788;DHT22;24536;45.488;12.238;2024-03-02T06:45:17;12.90;99.90
38788;DHT22;24536;45.488;12.238;2024-03-02T06:47:43;12.90;99.90
38788;DHT22;24536;45.488;12.238;2024-03-02T06:50:12;12.90;99.90
38788;DHT22;24536;45.488;12.238;2024-03-02T06:52:37;12.90;99.90
38788;DHT22;24536;45.488;12.238;2024-03-02T06:55:04;13.00;99.90
38788;DHT22;24536;45.488;12.238;2024-03-02T06:57:30;13.00;99.90
38788;DHT22;24536;45.488;12.238;2024-03-02T06:59:56;13.00;99.90
38788;DHT22;24536;45.488;12.238;2024-03-02T07:02:24;13.00;99.90
38788;DHT22;24536;45.488;12.238;2024-03-02T07:04:53;13.00;99.90
38788;DHT22;24536;45.488;12.238;2024-03-02T07:07:24;13.00;99.90
38788;DHT22;24536;45.488;12.238;2024-03-02T07:09:50;13.00;99.90
38788;DHT22;24536;45.488;12.238;2024-03-02T07:12:16;13.10;99.90
38788;DHT22;24536;45.488;12.238;2024-03-02T07:14:41;13.20;99.90
38788;DHT22;24536;45.488;12.238;2024-03-02T07:17:19;13.20;99.90
38788;DHT22;24536;45.488;12.238;2024-03-02T07:19:45;13.20;99.90
38788;DHT22;24536;45.488;12.238;2024-03-02T07:22:11;13.20;99.90
38788;DHT22;24536;45.488;12.238;2024-03-02T07:24:44;13.20;99.90
38788;DHT22;24536;45.488;12.238;2024-03-02T07:27:12;13.20;99.90
38788;DHT22;24536;45.488;12.238;2024-03-02T07:29:38;13.20;99.90
38788;DHT22;24536;45.488;12.238;2024-03-02T07:32:05;13.20;99.90
38788;DHT22;24536;45.488;12.238;2024-03-02T07:34:30;13.20;99.90
38788;DHT22;24536;45.488;12.238;2024-03-02T07:36:56;13.30;99.90
38788;DHT22;24536;45.488;12.238;2024-03-02T07:39:22;13.30;99.90
38788;DHT22;24536;45.488;12.238;2024-03-02T07:41:48;13.30;99.90
38788;DHT22;24536;45.488;12.238;2024-03-02T07:44:14;13.30;99.90
38788;DHT22;24536;45.488;12.238;2024-03-02T07:46:43;13.30;99.90
38788;DHT22;24536;45.488;12.238;2024-03-02T07:49:09;13.30;99.90
38788;DHT22;24536;45.488;12.238;2024-03-02T07:51:35;13.30;99.90
38788;DHT22;24536;45.488;12.238;2024-03-02T07:54:02;13.40;99.90
38788;DHT22;24536;45.488;12.238;2024-03-02T07:56:27;13.30;99.90
38788;DHT22;24536;45.488;12.238;2024-03-02T07:58:53;13.30;99.90
38788;DHT22;24536;45.488;12.238;2024-03-02T08:01:19;13.40;99.90
38788;DHT22;24536;45.488;12.238;2024-03-02T08:03:45;13.50;99.90
38788;DHT22;24536;45.488;12.238;2024-03-02T08:06:18;13.50;99.90
38788;DHT22;24536;45.488;12.238;2024-03-02T08:08:47;13.60;99.90
38788;DHT22;24536;45.488;12.238;2024-03-02T08:11:12;13.60;99.90
38788;DHT22;24536;45.488;12.238;2024-03-02T08:13:38;13.60;99.90
38788;DHT22;24536;45.488;12.238;2024-03-02T08:16:04;13.70;99.90
38788;DHT22;24536;45.488;12.238;2024-03-02T08:18:32;13.60;99.90
38788;DHT22;24536;45.488;12.238;2024-03-02T08:20:58;13.60;99.90
38788;DHT22;24536;45.488;12.238;2024-03-02T08:23:24;13.60;99.90
38788;DHT22;24536;45.488;12.238;2024-03-02T08:25:50;13.60;99.90
38788;DHT22;24536;45.488;12.238;2024-03-02T08:28:15;13.60;99.90
38788;DHT22;24536;45.488;12.238;2024-03-02T08:30:41;13.60;99.90
38788;DHT22;24536;45.488;12.238;2024-03-02T08:33:07;13.60;99.90
38788;DHT22;24536;45.488;12.238;2024-03-02T08:35:32;13.50;99.90
38788;DHT22;24536;45.488;12.238;2024-03-02T08:38:02;13.50;99.90
38788;DHT22;24536;45.488;12.238;2024-03-02T08:40:28;13.50;99.90
38788;DHT22;24536;45.488;12.238;2024-03-02T08:42:54;13.40;99.90
38788;DHT22;24536;45.488;12.238;2024-03-02T08:45:20;13.40;99.90
38788;DHT22;24536;45.488;12.238;2024-03-02T08:47:46;13.30;99.90
38788;DHT22;24536;45.488;12.238;2024-03-02T08:50:12;13.30;99.90
38788;DHT22;24536;45.488;12.238;2024-03-02T08:52:38;13.20;99.90
38788;DHT22;24536;45.488;12.238;2024-03-02T08:55:04;13.30;99.90
38788;DHT22;24536;45.488;12.238;2024-03-02T08:57:30;13.30;99.90
38788;DHT22;24536;45.488;12.238;2024-03-02T08:59:56;13.30;99.90
38788;DHT22;24536;45.488;12.238;2024-03-02T09:02:23;13.30;99.90
38788;DHT22;24536;45.488;12.238;2024-03-02T09:04:49;13.30;99.90
38788;DHT22;24536;45.488;12.238;2024-03-02T09:07:15;13.30;99.90
38788;DHT22;24536;45.488;12.238;2024-03-02T09:09:40;13.30;99.90
38788;DHT22;24536;45.488;12.238;2024-03-02T09:12:07;13.30;99.90
38788;DHT22;24536;45.488;12.238;2024-03-02T09:14:33;13.30;99.90
38788;DHT22;24536;45.488;12.238;2024-03-02T09:17:00;13.30;99.90
38788;DHT22;24536;45.488;12.238;2024-03-02T09:19:26;13.30;99.90
38788;DHT22;24536;45.488;12.238;2024-03-02T09:21:51;13.30;99.90
38788;DHT22;24536;45.488;12.238;2024-03-02T09:24:17;13.30;99.90
38788;DHT22;24536;45.488;12.238;2024-03-02T09:26:42;13.40;99.90
38788;DHT22;24536;45.488;12.238;2024-03-02T09:29:09;13.40;99.90
38788;DHT22;24536;45.488;12.238;2024-03-02T09:31:40;13.50;99.90
38788;DHT22;24536;45.488;12.238;2024-03-02T09:34:06;13.50;99.90
38788;DHT22;24536;45.488;12.238;2024-03-02T09:36:32;13.60;99.90
38788;DHT22;24536;45.488;12.238;2024-03-02T09:38:58;13.60;99.90
38788;DHT22;24536;45.488;12.238;2024-03-02T09:41:24;13.70;99.90
38788;DHT22;24536;45.488;12.238;2024-03-02T09:43:50;13.80;99.90
38788;DHT22;24536;45.488;12.238;2024-03-02T09:46:16;13.90;99.90
38788;DHT22;24536;45.488;12.238;2024-03-02T09:48:44;14.00;99.90
38788;DHT22;24536;45.488;12.238;2024-03-02T09:51:10;14.10;99.90
38788;DHT22;24536;45.488;12.238;2024-03-02T09:53:37;14.20;99.90
38788;DHT22;24536;45.488;12.238;2024-03-02T09:56:03;14.20;99.90
38788;DHT22;24536;45.488;12.238;2024-03-02T09:58:30;14.30;99.90
38788;DHT22;24536;45.488;12.238;2024-03-02T10:00:56;14.40;99.90
38788;DHT22;24536;45.488;12.238;2024-03-02T10:03:25;14.50;99.90
38788;DHT22;24536;45.488;12.238;2024-03-02T10:05:52;14.60;99.90
38788;DHT22;24536;45.488;12.238;2024-03-02T10:08:18;14.60;99.90
38788;DHT22;24536;45.488;12.238;2024-03-02T10:10:44;14.50;99.90
38788;DHT22;24536;45.488;12.238;2024-03-02T10:13:11;14.60;99.90
38788;DHT22;24536;45.488;12.238;2024-03-02T10:15:39;14.60;99.90
38788;DHT22;24536;45.488;12.238;2024-03-02T10:18:11;14.60;99.90
38788;DHT22;24536;45.488;12.238;2024-03-02T10:20:38;14.60;99.90
38788;DHT22;24536;45.488;12.238;2024-03-02T10:23:14;14.60;99.90
38788;DHT22;24536;45.488;12.238;2024-03-02T10:25:42;14.60;99.90
38788;DHT22;24536;45.488;12.238;2024-03-02T10:28:08;14.60;99.90
38788;DHT22;24536;45.488;12.238;2024-03-02T10:30:34;14.60;99.90
38788;DHT22;24536;45.488;12.238;2024-03-02T10:33:01;14.60;99.90
38788;DHT22;24536;45.488;12.238;2024-03-02T10:35:27;14.60;99.90
38788;DHT22;24536;45.488;12.238;2024-03-02T10:37:53;14.60;99.90
38788;DHT22;24536;45.488;12.238;2024-03-02T10:40:22;14.70;99.90
38788;DHT22;24536;45.488;12.238;2024-03-02T10:42:50;14.60;99.90
38788;DHT22;24536;45.488;12.238;2024-03-02T10:45:16;14.60;99.90
38788;DHT22;24536;45.488;12.238;2024-03-02T10:47:47;14.70;99.90
38788;DHT22;24536;45.488;12.238;2024-03-02T10:50:12;14.70;99.90
38788;DHT22;24536;45.488;12.238;2024-03-02T10:52:38;14.70;99.90
38788;DHT22;24536;45.488;12.238;2024-03-02T10:55:09;14.70;99.90
38788;DHT22;24536;45.488;12.238;2024-03-02T10:57:50;14.70;99.90
38788;DHT22;24536;45.488;12.238;2024-03-02T11:00:16;14.60;99.90
38788;DHT22;24536;45.488;12.238;2024-03-02T11:02:51;14.50;99.90
38788;DHT22;24536;45.488;12.238;2024-03-02T11:05:27;14.50;99.90
38788;DHT22;24536;45.488;12.238;2024-03-02T11:08:00;14.40;99.90
38788;DHT22;24536;45.488;12.238;2024-03-02T11:10:28;14.40;99.90
38788;DHT22;24536;45.488;12.238;2024-03-02T11:13:02;14.30;99.90
38788;DHT22;24536;45.488;12.238;2024-03-02T11:15:30;14.30;99.90
38788;DHT22;24536;45.488;12.238;2024-03-02T11:17:59;14.30;99.90
38788;DHT22;24536;45.488;12.238;2024-03-02T11:20:29;14.30;99.90
38788;DHT22;24536;45.488;12.238;2024-03-02T11:22:56;14.30;99.90
38788;DHT22;24536;45.488;12.238;2024-03-02T11:25:28;14.30;99.90
38788;DHT22;24536;45.488;12.238;2024-03-02T11:32:58;14.30;99.90
38788;DHT22;24536;45.488;12.238;2024-03-02T11:35:27;14.30;99.90
38788;DHT22;24536;45.488;12.238;2024-03-02T11:37:55;14.30;99.90
38788;DHT22;24536;45.488;12.238;2024-03-02T11:40:28;14.30;99.90
38788;DHT22;24536;45.488;12.238;2024-03-02T11:42:53;14.30;99.90
38788;DHT22;24536;45.488;12.238;2024-03-02T11:45:23;14.30;99.90
38788;DHT22;24536;45.488;12.238;2024-03-02T11:47:58;14.40;99.90
38788;DHT22;24536;45.488;12.238;2024-03-02T11:53:07;14.50;99.90
38788;DHT22;24536;45.488;12.238;2024-03-02T11:55:36;14.50;99.90
38788;DHT22;24536;45.488;12.238;2024-03-02T11:58:04;14.60;99.90
38788;DHT22;24536;45.488;12.238;2024-03-02T12:00:30;14.70;99.90
38788;DHT22;24536;45.488;12.238;2024-03-02T12:03:07;15.00;99.90
38788;DHT22;24536;45.488;12.238;2024-03-02T12:05:33;15.40;99.90
38788;DHT22;24536;45.488;12.238;2024-03-02T12:08:03;15.70;99.90
38788;DHT22;24536;45.488;12.238;2024-03-02T12:10:29;16.00;99.90
38788;DHT22;24536;45.488;12.238;2024-03-02T12:13:02;16.00;99.60
38788;DHT22;24536;45.488;12.238;2024-03-02T12:15:30;16.00;99.40
38788;DHT22;24536;45.488;12.238;2024-03-02T12:17:58;15.90;99.20
38788;DHT22;24536;45.488;12.238;2024-03-02T12:20:29;15.80;99.50
38788;DHT22;24536;45.488;12.238;2024-03-02T12:22:59;15.70;99.30
38788;DHT22;24536;45.488;12.238;2024-03-02T12:25:26;15.60;99.30
38788;DHT22;24536;45.488;12.238;2024-03-02T12:27:57;15.50;99.40
38788;DHT22;24536;45.488;12.238;2024-03-02T12:30:30;15.50;99.50
38788;DHT22;24536;45.488;12.238;2024-03-02T12:32:56;15.40;99.50
38788;DHT22;24536;45.488;12.238;2024-03-02T12:35:26;15.40;99.50
38788;DHT22;24536;45.488;12.238;2024-03-02T12:37:54;15.40;99.50
38788;DHT22;24536;45.488;12.238;2024-03-02T12:40:20;15.40;99.60
38788;DHT22;24536;45.488;12.238;2024-03-02T12:42:49;15.40;99.60
38788;DHT22;24536;45.488;12.238;2024-03-02T12:45:15;15.30;99.50
38788;DHT22;24536;45.488;12.238;2024-03-02T12:47:42;15.30;99.60
38788;DHT22;24536;45.488;12.238;2024-03-02T12:50:09;15.20;99.60
38788;DHT22;24536;45.488;12.238;2024-03-02T12:52:35;15.20;99.70
38788;DHT22;24536;45.488;12.238;2024-03-02T12:55:03;15.20;99.80
38788;DHT22;24536;45.488;12.238;2024-03-02T12:57:30;15.30;99.90
38788;DHT22;24536;45.488;12.238;2024-03-02T13:00:03;15.30;99.90
38788;DHT22;24536;45.488;12.238;2024-03-02T13:02:39;15.30;99.90
38788;DHT22;24536;45.488;12.238;2024-03-02T13:05:07;15.30;99.80
38788;DHT22;24536;45.488;12.238;2024-03-02T13:07:40;15.20;99.70
38788;DHT22;24536;45.488;12.238;2024-03-02T13:10:06;15.20;99.70
38788;DHT22;24536;45.488;12.238;2024-03-02T13:12:36;15.20;99.60
38788;DHT22;24536;45.488;12.238;2024-03-02T13:15:03;15.20;99.70
38788;DHT22;24536;45.488;12.238;2024-03-02T13:17:29;15.20;99.80
38788;DHT22;24536;45.488;12.238;2024-03-02T13:19:56;15.20;99.90
38788;DHT22;24536;45.488;12.238;2024-03-02T13:22:22;15.20;99.80
38788;DHT22;24536;45.488;12.238;2024-03-02T13:24:50;15.20;99.80
38788;DHT22;24536;45.488;12.238;2024-03-02T13:27:16;15.20;99.70
38788;DHT22;24536;45.488;12.238;2024-03-02T13:29:45;15.20;99.70
38788;DHT22;24536;45.488;12.238;2024-03-02T13:32:12;15.20;99.80
38788;DHT22;24536;45.488;12.238;2024-03-02T13:34:37;15.20;99.90
38788;DHT22;24536;45.488;12.238;2024-03-02T13:37:03;15.20;99.90
38788;DHT22;24536;45.488;12.238;2024-03-02T13:39:31;15.30;99.90
38788;DHT22;24536;45.488;12.238;2024-03-02T13:41:58;15.30;99.90
38788;DHT22;24536;45.488;12.238;2024-03-02T13:44:30;15.40;99.90
38788;DHT22;24536;45.488;12.238;2024-03-02T13:46:56;15.40;99.70
38788;DHT22;24536;45.488;12.238;2024-03-02T13:49:22;15.50;99.70
38788;DHT22;24536;45.488;12.238;2024-03-02T13:51:48;15.60;99.60
38788;DHT22;24536;45.488;12.238;2024-03-02T13:54:14;15.70;99.50
38788;DHT22;24536;45.488;12.238;2024-03-02T13:56:40;15.70;99.40
38788;DHT22;24536;45.488;12.238;2024-03-02T13:59:07;15.70;99.50
38788;DHT22;24536;45.488;12.238;2024-03-02T14:01:33;15.70;99.40
38788;DHT22;24536;45.488;12.238;2024-03-02T14:03:59;15.70;99.20
38788;DHT22;24536;45.488;12.238;2024-03-02T14:06:25;15.60;99.10
38788;DHT22;24536;45.488;12.238;2024-03-02T14:08:53;15.60;99.10
38788;DHT22;24536;45.488;12.238;2024-03-02T14:11:19;15.70;99.20
38788;DHT22;24536;45.488;12.238;2024-03-02T14:13:45;15.70;99.20
38788;DHT22;24536;45.488;12.238;2024-03-02T14:16:19;15.80;99.20
38788;DHT22;24536;45.488;12.238;2024-03-02T14:18:45;15.90;99.10
38788;DHT22;24536;45.488;12.238;2024-03-02T14:21:10;15.90;98.90
38788;DHT22;24536;45.488;12.238;2024-03-02T14:23:36;16.00;98.60
38788;DHT22;24536;45.488;12.238;2024-03-02T14:26:02;16.00;98.30
38788;DHT22;24536;45.488;12.238;2024-03-02T14:28:27;16.10;98.20
38788;DHT22;24536;45.488;12.238;2024-03-02T14:30:53;16.10;98.20
38788;DHT22;24536;45.488;12.238;2024-03-02T14:33:20;16.20;98.00
38788;DHT22;24536;45.488;12.238;2024-03-02T14:35:46;16.30;97.90
38788;DHT22;24536;45.488;12.238;2024-03-02T14:38:12;16.20;97.80
38788;DHT22;24536;45.488;12.238;2024-03-02T14:40:38;16.20;97.70
38788;DHT22;24536;45.488;12.238;2024-03-02T14:43:04;16.20;97.50
38788;DHT22;24536;45.488;12.238;2024-03-02T14:45:30;16.10;97.50
38788;DHT22;24536;45.488;12.238;2024-03-02T14:47:56;16.00;97.30
38788;DHT22;24536;45.488;12.238;2024-03-02T14:50:28;15.90;97.30
38788;DHT22;24536;45.488;12.238;2024-03-02T14:52:54;15.80;97.30
38788;DHT22;24536;45.488;12.238;2024-03-02T14:55:22;15.70;97.20
38788;DHT22;24536;45.488;12.238;2024-03-02T14:57:49;15.70;97.40
38788;DHT22;24536;45.488;12.238;2024-03-02T15:00:15;15.60;97.50
38788;DHT22;24536;45.488;12.238;2024-03-02T15:02:41;15.60;97.40
38788;DHT22;24536;45.488;12.238;2024-03-02T15:05:07;15.60;97.50
38788;DHT22;24536;45.488;12.238;2024-03-02T15:07:33;15.50;97.60
38788;DHT22;24536;45.488;12.238;2024-03-02T15:09:58;15.60;97.90
38788;DHT22;24536;45.488;12.238;2024-03-02T15:12:24;15.50;98.00
38788;DHT22;24536;45.488;12.238;2024-03-02T15:14:50;15.50;98.00
38788;DHT22;24536;45.488;12.238;2024-03-02T15:17:18;15.50;98.00
38788;DHT22;24536;45.488;12.238;2024-03-02T15:19:45;15.50;98.00
38788;DHT22;24536;45.488;12.238;2024-03-02T15:22:11;15.50;98.10
38788;DHT22;24536;45.488;12.238;2024-03-02T15:24:37;15.50;98.20
38788;DHT22;24536;45.488;12.238;2024-03-02T15:27:04;15.40;98.30